Time;durP1;ratioP1;P1;durP2;ratioP2;P2;SDS_P1;SDS_P2;PMS_P1;PMS_P2;Temp;Humidity;BMP_temperature;BMP_pressure;BME280_temperature;BME280_humidity;BME280_pressure;Samples;Min_cycle;Max_cycle;Signal;HPM_P1;HPM_P2
2022/08/12 00:43:49;;;;;;;15.80;8.82;;;;;;;;;;6234721;23;20101;-86
2022/08/12 00:46:29;;;;;;;12.00;7.85;;;;;;;;;;6210568;23;20018;-86
2022/08/12 00:48:56;;;;;;;17.67;8.00;;;;;;;;;;6210188;23;20000;-86
2022/08/12 00:51:23;;;;;;;13.27;7.43;;;;;;;;;;6210283;23;20268;-85
2022/08/12 00:53:48;;;;;;;13.65;7.75;;;;;;;;;;6210722;23;20019;-86
2022/08/12 00:56:15;;;;;;;11.23;7.18;;;;;;;;;;6207639;23;20435;-86
2022/08/12 00:58:46;;;;;;;15.70;8.18;;;;;;;;;;6210860;23;20004;-86
2022/08/12 01:01:13;;;;;;;11.18;7.13;;;;;;;;;;6208522;23;20008;-86
2022/08/12 01:11:55;;;;;;;7.93;5.93;;;;;;;;;;6235213;23;20081;-86
2022/08/12 01:14:23;;;;;;;23.10;6.68;;;;;;;;;;6210459;23;20011;-87
2022/08/12 01:16:51;;;;;;;9.95;6.80;;;;;;;;;;6207422;23;20019;-86
2022/08/12 01:19:17;;;;;;;13.38;7.05;;;;;;;;;;6209218;23;20015;-86
2022/08/12 01:22:04;;;;;;;11.18;6.78;;;;;;;;;;6209662;23;20456;-86
2022/08/12 01:24:48;;;;;;;9.57;6.82;;;;;;;;;;6183451;23;20598;-86
2022/08/12 01:27:15;;;;;;;12.40;6.97;;;;;;;;;;6209593;22;20008;-87
2022/08/12 01:29:43;;;;;;;10.85;6.45;;;;;;;;;;6207528;23;20012;-86
2022/08/12 01:32:11;;;;;;;11.20;7.75;;;;;;;;;;6208600;23;20070;-86
2022/08/12 01:34:38;;;;;;;13.55;7.20;;;;;;;;;;6208761;23;20359;-86
2022/08/12 01:37:08;;;;;;;13.25;7.03;;;;;;;;;;6209801;23;20018;-86
2022/08/12 01:39:55;;;;;;;18.42;8.27;;;;;;;;;;6209991;23;20023;-86
2022/08/12 01:42:21;;;;;;;13.20;6.50;;;;;;;;;;6236876;23;20008;-86
2022/08/12 01:44:52;;;;;;;9.48;6.68;;;;;;;;;;6235303;23;20004;-86
2022/08/12 01:47:30;;;;;;;11.95;7.63;;;;;;;;;;6205160;23;20008;-86
2022/08/12 01:50:19;;;;;;;12.43;7.22;;;;;;;;;;6209959;23;20028;-86
2022/08/12 01:52:45;;;;;;;12.95;6.97;;;;;;;;;;6209543;23;20115;-87
2022/08/12 01:55:13;;;;;;;15.02;6.38;;;;;;;;;;6210706;23;20447;-86
2022/08/12 01:57:46;;;;;;;11.77;7.85;;;;;;;;;;6209405;23;20014;-86
2022/08/12 02:00:13;;;;;;;13.02;7.45;;;;;;;;;;6211228;23;20016;-86
2022/08/12 02:02:57;;;;;;;9.60;6.70;;;;;;;;;;6236391;23;20008;-86
2022/08/12 02:11:18;;;;;;;12.45;7.28;;;;;;;;;;6237204;23;20534;-86
2022/08/12 02:13:44;;;;;;;14.52;7.18;;;;;;;;;;6236340;23;20003;-86
2022/08/12 02:16:21;;;;;;;12.13;7.28;;;;;;;;;;6208192;23;20091;-86
2022/08/12 02:18:57;;;;;;;9.90;6.60;;;;;;;;;;6209929;23;20042;-87
2022/08/12 02:21:23;;;;;;;;;;;;;;;;;;6236920;23;20432;-87
2022/08/12 02:23:57;;;;;;;17.27;6.72;;;;;;;;;;6212949;23;19911;-87
2022/08/12 02:26:24;;;;;;;14.82;7.05;;;;;;;;;;6207504;23;20410;-86
2022/08/12 02:28:51;;;;;;;14.73;6.97;;;;;;;;;;6211489;22;20012;-86
2022/08/12 02:31:18;;;;;;;9.50;6.78;;;;;;;;;;6186097;23;20420;-86
2022/08/12 02:33:46;;;;;;;12.05;7.35;;;;;;;;;;6210658;23;20103;-87
2022/08/12 02:36:15;;;;;;;11.95;6.95;;;;;;;;;;6212833;23;20008;-86
2022/08/12 02:38:42;;;;;;;14.40;8.10;;;;;;;;;;6211148;23;20419;-86
2022/08/12 02:41:09;;;;;;;20.60;7.35;;;;;;;;;;6210860;23;20008;-86
2022/08/12 02:43:39;;;;;;;15.50;6.97;;;;;;;;;;6210535;23;20112;-86
2022/08/12 02:46:05;;;;;;;19.67;7.65;;;;;;;;;;6237547;23;20389;-86
2022/08/12 02:48:39;;;;;;;21.35;7.68;;;;;;;;;;6212162;23;20026;-86
2022/08/12 02:51:06;;;;;;;15.70;7.32;;;;;;;;;;6210228;23;20429;-87
2022/08/12 02:53:35;;;;;;;14.27;7.55;;;;;;;;;;6211070;23;20424;-87
2022/08/12 02:56:02;;;;;;;13.88;7.47;;;;;;;;;;6210625;23;20354;-86
2022/08/12 02:58:28;;;;;;;12.68;7.50;;;;;;;;;;6209959;23;20012;-86
2022/08/12 03:00:54;;;;;;;9.82;6.93;;;;;;;;;;6210716;23;20007;-86
2022/08/12 03:03:21;;;;;;;12.07;7.60;;;;;;;;;;6237232;23;20023;-86
2022/08/12 03:05:51;;;;;;;11.02;7.38;;;;;;;;;;6212329;23;20008;-86
2022/08/12 03:08:18;;;;;;;18.05;6.70;;;;;;;;;;6210254;23;20272;-87
2022/08/12 03:10:45;;;;;;;14.57;7.47;;;;;;;;;;6210014;23;20004;-86
2022/08/12 03:13:11;;;;;;;12.20;7.60;;;;;;;;;;6209224;23;20083;-87
2022/08/12 03:15:39;;;;;;;16.15;8.32;;;;;;;;;;6209224;23;20429;-87
2022/08/12 03:18:14;;;;;;;12.68;7.40;;;;;;;;;;6210733;23;20480;-86
2022/08/12 03:20:40;;;;;;;13.73;8.10;;;;;;;;;;6212059;23;20046;-86
2022/08/12 03:23:14;;;;;;;11.07;7.13;;;;;;;;;;6211603;23;20008;-86
2022/08/12 03:25:40;;;;;;;13.57;7.40;;;;;;;;;;6212833;23;20471;-86
2022/08/12 03:28:10;;;;;;;13.00;7.82;;;;;;;;;;6235941;22;20020;-86
2022/08/12 03:30:37;;;;;;;13.25;8.20;;;;;;;;;;6211958;23;20043;-86
2022/08/12 03:33:12;;;;;;;14.00;8.25;;;;;;;;;;6212267;23;20028;-86
2022/08/12 03:35:39;;;;;;;17.75;7.20;;;;;;;;;;6211624;23;20018;-86
2022/08/12 03:38:10;;;;;;;8.55;6.43;;;;;;;;;;6211585;23;20008;-85
2022/08/12 04:00:24;;;;;;;9.20;6.75;;;;;;;;;;6239047;23;20019;-86
2022/08/12 04:03:04;;;;;;;10.52;6.65;;;;;;;;;;6210218;23;20491;-86
2022/08/12 04:05:32;;;;;;;13.07;6.95;;;;;;;;;;6238931;23;20019;-86
2022/08/12 04:07:59;;;;;;;14.43;6.80;;;;;;;;;;6210143;23;20214;-86
2022/08/12 04:13:14;;;;;;;21.63;7.72;;;;;;;;;;6211141;23;20313;-86
2022/08/12 04:13:15;;;;;;;10.07;6.72;;;;;;;;;;6236410;23;20019;-86
2022/08/12 04:15:44;;;;;;;14.88;7.70;;;;;;;;;;6211275;23;20062;-87
2022/08/12 04:18:11;;;;;;;12.38;7.10;;;;;;;;;;6211642;23;20012;-87
2022/08/12 04:20:38;;;;;;;18.15;8.20;;;;;;;;;;6211007;23;20008;-86
2022/08/12 04:23:04;;;;;;;8.73;7.10;;;;;;;;;;6211152;23;20058;-86
2022/08/12 04:25:31;;;;;;;12.07;6.70;;;;;;;;;;6237584;23;20004;-86
2022/08/12 04:28:03;;;;;;;14.15;6.53;;;;;;;;;;6208686;22;20009;-86
2022/08/12 04:30:29;;;;;;;13.10;6.10;;;;;;;;;;6210960;23;20491;-87
2022/08/12 04:32:57;;;;;;;9.55;6.03;;;;;;;;;;6208858;23;20005;-86
2022/08/12 04:35:23;;;;;;;14.65;7.45;;;;;;;;;;6209000;23;20004;-86
2022/08/12 04:37:54;;;;;;;10.18;6.43;;;;;;;;;;6211550;23;20452;-86
2022/08/12 04:40:22;;;;;;;10.23;5.68;;;;;;;;;;6210737;23;20419;-87
2022/08/12 04:42:48;;;;;;;13.45;6.40;;;;;;;;;;6210837;23;20008;-87
2022/08/12 04:45:14;;;;;;;10.52;6.28;;;;;;;;;;6208901;23;20012;-86
2022/08/12 04:47:40;;;;;;;15.20;6.47;;;;;;;;;;6208829;23;20062;-87
2022/08/12 04:50:07;;;;;;;11.95;5.93;;;;;;;;;;6209496;23;20368;-87
2022/08/12 04:52:33;;;;;;;10.32;6.32;;;;;;;;;;6209083;23;20458;-87
2022/08/12 04:54:59;;;;;;;9.68;6.38;;;;;;;;;;6208478;23;20001;-86
2022/08/12 04:57:25;;;;;;;11.27;6.20;;;;;;;;;;6209100;23;20012;-87
2022/08/12 04:59:51;;;;;;;19.20;7.15;;;;;;;;;;6210505;23;20433;-85
2022/08/12 05:02:18;;;;;;;11.23;6.93;;;;;;;;;;6208877;23;20018;-86
2022/08/12 05:04:46;;;;;;;13.35;5.95;;;;;;;;;;6209568;23;20004;-86
2022/08/12 05:07:12;;;;;;;17.10;6.93;;;;;;;;;;6210799;23;20008;-87
2022/08/12 05:09:38;;;;;;;9.88;5.95;;;;;;;;;;6211568;23;20482;-87
2022/08/12 05:12:05;;;;;;;17.90;6.03;;;;;;;;;;6208969;23;20004;-87
2022/08/12 05:14:31;;;;;;;12.15;6.05;;;;;;;;;;6210699;23;20061;-87
2022/08/12 05:16:59;;;;;;;11.95;6.10;;;;;;;;;;6210067;23;20004;-87
2022/08/12 05:19:25;;;;;;;11.45;6.38;;;;;;;;;;6238296;23;20008;-87
2022/08/12 05:21:51;;;;;;;8.93;5.97;;;;;;;;;;6236400;23;20015;-88
2022/08/12 05:24:17;;;;;;;7.95;5.32;;;;;;;;;;6238299;23;20027;-86
2022/08/12 05:26:43;;;;;;;12.73;5.90;;;;;;;;;;6207711;23;20016;-86
2022/08/12 05:29:15;;;;;;;13.02;5.90;;;;;;;;;;6209911;22;20516;-86
2022/08/12 05:31:42;;;;;;;8.13;5.07;;;;;;;;;;6209954;23;20008;-86
2022/08/12 05:34:08;;;;;;;17.67;5.40;;;;;;;;;;6208880;23;20008;-86
2022/08/12 05:36:35;;;;;;;9.90;5.45;;;;;;;;;;6236592;23;20008;-86
2022/08/12 05:39:01;;;;;;;16.35;5.32;;;;;;;;;;6210219;23;20479;-86
2022/08/12 05:41:28;;;;;;;7.15;5.10;;;;;;;;;;6232650;23;20004;-86
2022/08/12 05:43:56;;;;;;;19.85;5.97;;;;;;;;;;6208003;23;20008;-87
2022/08/12 05:46:22;;;;;;;13.15;5.00;;;;;;;;;;6207619;23;20007;-85
2022/08/12 05:48:50;;;;;;;10.43;5.05;;;;;;;;;;6209511;23;20012;-86
2022/08/12 05:51:16;;;;;;;14.18;5.35;;;;;;;;;;6209271;23;20439;-85
2022/08/12 05:53:43;;;;;;;8.35;4.50;;;;;;;;;;6208251;23;20012;-85
2022/08/12 05:56:23;;;;;;;9.82;5.90;;;;;;;;;;6209208;23;20012;-85
2022/08/12 05:58:50;;;;;;;7.53;4.68;;;;;;;;;;6210881;23;20044;-85
2022/08/12 06:01:16;;;;;;;6.38;4.38;;;;;;;;;;6211512;23;20083;-85
2022/08/12 06:03:43;;;;;;;8.77;4.50;;;;;;;;;;6211727;23;20004;-86
2022/08/12 06:06:09;;;;;;;8.63;4.40;;;;;;;;;;6211204;23;20103;-86
2022/08/12 06:08:36;;;;;;;8.90;4.68;;;;;;;;;;6211592;23;20047;-87
2022/08/12 06:11:03;;;;;;;6.03;4.45;;;;;;;;;;6214100;23;20035;-86
2022/08/12 06:13:29;;;;;;;9.70;4.95;;;;;;;;;;6211238;23;20144;-86
2022/08/12 06:15:56;;;;;;;12.63;4.88;;;;;;;;;;6210645;23;20451;-88
2022/08/12 06:18:22;;;;;;;11.30;4.03;;;;;;;;;;6211687;23;20008;-88
2022/08/12 06:20:48;;;;;;;8.27;4.68;;;;;;;;;;6213483;23;20000;-86
2022/08/12 06:23:14;;;;;;;3.88;3.35;;;;;;;;;;6213719;23;20102;-87
2022/08/12 06:25:42;;;;;;;10.60;3.65;;;;;;;;;;6213002;23;20038;-87
2022/08/12 06:28:18;;;;;;;9.23;4.20;;;;;;;;;;6212344;22;20011;-87
2022/08/12 06:30:45;;;;;;;8.98;4.50;;;;;;;;;;6213290;23;20428;-87
2022/08/12 06:33:12;;;;;;;4.80;3.70;;;;;;;;;;6212961;23;20008;-88
2022/08/12 06:35:39;;;;;;;4.85;3.60;;;;;;;;;;6212219;23;20385;-87
2022/08/12 06:38:14;;;;;;;7.75;3.92;;;;;;;;;;6213826;23;20004;-87
2022/08/12 06:43:24;;;;;;;11.95;3.58;;;;;;;;;;6240366;23;20018;-88
2022/08/12 06:45:50;;;;;;;7.45;4.07;;;;;;;;;;6212376;23;20154;-88
2022/08/12 06:48:16;;;;;;;9.25;3.50;;;;;;;;;;6213383;23;20000;-87
2022/08/12 06:50:43;;;;;;;9.50;4.15;;;;;;;;;;6212645;23;20515;-88
2022/08/12 06:53:09;;;;;;;7.38;3.22;;;;;;;;;;6213720;23;20015;-88
2022/08/12 06:55:36;;;;;;;17.33;3.58;;;;;;;;;;6212595;23;20436;-88
2022/08/12 06:58:03;;;;;;;5.50;3.08;;;;;;;;;;6212035;23;20022;-88
2022/08/12 07:00:32;;;;;;;11.10;3.70;;;;;;;;;;6240859;23;20004;-88
2022/08/12 07:02:58;;;;;;;5.97;3.33;;;;;;;;;;6211785;23;20008;-88
2022/08/12 07:05:24;;;;;;;11.10;3.08;;;;;;;;;;6240269;23;20001;-87
2022/08/12 07:08:05;;;;;;;12.48;3.55;;;;;;;;;;6212213;23;20004;-87
2022/08/12 07:10:31;;;;;;;6.47;3.35;;;;;;;;;;6240727;23;20010;-87
2022/08/12 07:13:00;;;;;;;12.93;2.88;;;;;;;;;;6240298;23;20004;-88
2022/08/12 07:15:27;;;;;;;10.93;2.97;;;;;;;;;;6210204;23;20019;-87
2022/08/12 07:20:42;;;;;;;9.63;2.93;;;;;;;;;;6240874;23;20008;-87
2022/08/12 07:23:08;;;;;;;14.23;3.03;;;;;;;;;;6213002;23;20235;-87
2022/08/12 07:25:35;;;;;;;4.68;3.15;;;;;;;;;;6211873;23;20004;-88
2022/08/12 07:28:06;;;;;;;9.95;2.70;;;;;;;;;;6210001;22;20446;-88
2022/08/12 07:30:33;;;;;;;7.95;2.60;;;;;;;;;;6211855;23;20040;-88
2022/08/12 07:33:02;;;;;;;9.48;2.38;;;;;;;;;;6211841;23;20011;-88
2022/08/12 07:35:28;;;;;;;3.42;2.75;;;;;;;;;;6212181;23;20007;-88
2022/08/12 07:37:56;;;;;;;6.40;2.83;;;;;;;;;;6211527;23;20007;-87
2022/08/12 07:40:22;;;;;;;4.20;3.10;;;;;;;;;;6210349;23;20046;-88
2022/08/12 07:42:48;;;;;;;6.20;3.03;;;;;;;;;;6211495;23;20062;-88
2022/08/12 07:45:14;;;;;;;8.80;3.00;;;;;;;;;;6211891;23;20016;-87
2022/08/12 07:47:42;;;;;;;6.32;2.42;;;;;;;;;;6210269;23;20015;-88
2022/08/12 07:50:12;;;;;;;5.63;2.63;;;;;;;;;;6239806;23;20054;-87
2022/08/12 07:52:40;;;;;;;7.90;2.50;;;;;;;;;;6212011;23;20039;-87
2022/08/12 07:55:07;;;;;;;7.03;2.92;;;;;;;;;;6211361;23;20004;-88
2022/08/12 07:57:33;;;;;;;4.55;2.70;;;;;;;;;;6238971;23;20000;-87
2022/08/12 08:00:04;;;;;;;6.80;3.40;;;;;;;;;;6212089;23;20419;-88
2022/08/12 08:02:32;;;;;;;10.88;2.70;;;;;;;;;;6213530;23;20015;-88
2022/08/12 08:04:59;;;;;;;4.90;2.83;;;;;;;;;;6212389;23;20015;-88
2022/08/12 08:07:26;;;;;;;3.80;2.47;;;;;;;;;;6212321;23;20012;-88
2022/08/12 08:09:56;;;;;;;6.55;2.83;;;;;;;;;;6236666;23;20004;-88
2022/08/12 08:15:09;;;;;;;7.00;2.67;;;;;;;;;;6236684;23;20019;-88
2022/08/12 08:17:36;;;;;;;6.15;2.95;;;;;;;;;;6210123;23;20448;-88
2022/08/12 08:20:02;;;;;;;7.15;2.42;;;;;;;;;;6211226;23;20498;-88
2022/08/12 08:22:28;;;;;;;4.88;2.50;;;;;;;;;;6213081;23;20066;-88
2022/08/12 08:24:58;;;;;;;8.40;2.83;;;;;;;;;;6211247;23;20511;-88
2022/08/12 08:27:24;;;;;;;6.07;2.47;;;;;;;;;;6210759;23;20333;-88
2022/08/12 08:29:50;;;;;;;5.32;2.63;;;;;;;;;;6211997;22;20502;-87
2022/08/12 08:32:16;;;;;;;4.60;2.60;;;;;;;;;;6212081;23;20051;-88
2022/08/12 08:34:44;;;;;;;11.70;2.80;;;;;;;;;;6211389;23;20572;-88
2022/08/12 08:37:14;;;;;;;5.13;2.25;;;;;;;;;;6211510;23;20061;-87
2022/08/12 08:39:40;;;;;;;4.25;2.72;;;;;;;;;;6212302;23;20412;-87
2022/08/12 08:42:39;;;;;;;7.60;3.58;;;;;;;;;;6210569;23;20012;-87
2022/08/12 08:44:59;;;;;;;10.70;3.17;;;;;;;;;;6234730;23;20012;-88
2022/08/12 08:47:25;;;;;;;3.85;3.17;;;;;;;;;;6210418;23;20400;-88
2022/08/12 08:49:51;;;;;;;4.35;2.97;;;;;;;;;;6212228;23;20004;-88
2022/08/12 08:52:22;;;;;;;4.97;3.00;;;;;;;;;;6210254;23;20035;-88
2022/08/12 08:54:49;;;;;;;7.47;2.70;;;;;;;;;;6212168;23;20038;-88
2022/08/12 08:57:15;;;;;;;8.63;2.70;;;;;;;;;;6238422;23;20004;-88
2022/08/12 08:59:43;;;;;;;6.88;2.67;;;;;;;;;;6210584;23;20012;-87
2022/08/12 09:02:09;;;;;;;5.72;2.35;;;;;;;;;;6210012;23;20398;-87
2022/08/12 09:04:35;;;;;;;5.10;2.55;;;;;;;;;;6210154;23;20091;-88
2022/08/12 09:07:07;;;;;;;4.88;2.45;;;;;;;;;;6238445;23;20008;-88
2022/08/12 09:09:36;;;;;;;7.13;2.80;;;;;;;;;;6210037;23;20004;-88
2022/08/12 09:14:47;;;;;;;10.25;3.03;;;;;;;;;;6237458;23;20054;-88
2022/08/12 09:17:13;;;;;;;7.63;2.75;;;;;;;;;;6210659;23;20368;-88
2022/08/12 09:19:40;;;;;;;6.13;2.70;;;;;;;;;;6209548;23;20456;-88
2022/08/12 09:22:07;;;;;;;9.68;2.70;;;;;;;;;;6210917;23;20076;-88
2022/08/12 09:24:34;;;;;;;5.30;2.50;;;;;;;;;;6212430;23;20015;-88
2022/08/12 09:27:01;;;;;;;8.55;2.75;;;;;;;;;;6209549;23;20069;-87
2022/08/12 09:29:28;;;;;;;6.20;2.60;;;;;;;;;;6206783;22;20500;-87
2022/08/12 09:31:55;;;;;;;6.15;2.92;;;;;;;;;;6205124;23;20325;-87
2022/08/12 09:34:21;;;;;;;4.75;2.70;;;;;;;;;;6210677;23;20005;-88
2022/08/12 09:36:47;;;;;;;4.13;2.53;;;;;;;;;;6208332;23;20005;-88
2022/08/12 09:39:13;;;;;;;4.55;2.83;;;;;;;;;;6208397;23;20039;-88
2022/08/12 09:41:43;;;;;;;6.60;2.70;;;;;;;;;;6208195;23;20008;-87
2022/08/12 09:46:54;;;;;;;3.63;2.63;;;;;;;;;;6208279;23;20023;-88
2022/08/12 09:49:20;;;;;;;5.85;3.00;;;;;;;;;;6207485;23;20016;-88
2022/08/12 09:51:47;;;;;;;3.85;3.00;;;;;;;;;;6208526;23;20005;-88
2022/08/12 09:54:16;;;;;;;5.50;2.63;;;;;;;;;;6210057;23;20455;-87
2022/08/12 09:56:42;;;;;;;4.47;2.70;;;;;;;;;;6204846;23;20016;-88
2022/08/12 09:59:09;;;;;;;7.50;2.42;;;;;;;;;;6210258;23;20009;-87
2022/08/12 10:01:39;;;;;;;6.93;2.67;;;;;;;;;;6205974;23;20449;-88
2022/08/12 10:04:09;;;;;;;3.90;3.28;;;;;;;;;;6207527;23;20461;-87
2022/08/12 10:06:38;;;;;;;9.35;2.97;;;;;;;;;;6208113;23;20489;-87
2022/08/12 10:09:05;;;;;;;4.45;2.58;;;;;;;;;;6207420;23;20000;-87
2022/08/12 10:14:16;;;;;;;7.60;3.10;;;;;;;;;;6210520;23;20353;-88
2022/08/12 10:16:43;;;;;;;4.85;2.97;;;;;;;;;;6205915;23;20519;-88
2022/08/12 10:19:09;;;;;;;3.75;2.50;;;;;;;;;;6207341;23;20012;-87
2022/08/12 10:21:37;;;;;;;7.60;2.90;;;;;;;;;;6206245;23;20087;-88
2022/08/12 10:24:03;;;;;;;7.60;2.47;;;;;;;;;;6205537;23;20460;-87
2022/08/12 10:32:07;;;;;;;2.92;2.25;;;;;;;;;;6239453;23;20352;-88
2022/08/12 10:34:34;;;;;;;5.10;2.65;;;;;;;;;;6212529;23;20004;-87
2022/08/12 10:37:01;;;;;;;3.67;3.25;;;;;;;;;;6213566;23;20424;-88
2022/08/12 10:39:31;;;;;;;6.13;2.60;;;;;;;;;;6211832;23;20020;-87
2022/08/12 10:44:42;;;;;;;5.10;2.70;;;;;;;;;;6237717;23;20023;-88
2022/08/12 10:47:09;;;;;;;4.22;2.58;;;;;;;;;;6211625;23;20008;-87
2022/08/12 10:49:35;;;;;;;5.13;2.70;;;;;;;;;;6211973;23;20415;-88
2022/08/12 10:52:01;;;;;;;4.65;2.40;;;;;;;;;;6211766;23;20521;-88
2022/08/12 10:54:28;;;;;;;5.03;2.70;;;;;;;;;;6212074;23;20011;-88
2022/08/12 10:56:56;;;;;;;4.47;2.28;;;;;;;;;;6210732;23;20344;-87
2022/08/12 10:59:23;;;;;;;4.55;2.50;;;;;;;;;;6212386;23;20008;-88
2022/08/12 11:01:50;;;;;;;7.65;2.47;;;;;;;;;;6210380;23;20008;-88
2022/08/12 11:04:16;;;;;;;5.40;2.40;;;;;;;;;;6213028;23;20004;-88
2022/08/12 11:06:46;;;;;;;7.97;2.80;;;;;;;;;;6212495;23;20424;-87
2022/08/12 11:09:16;;;;;;;3.33;2.60;;;;;;;;;;6213077;23;20012;-87
2022/08/12 11:11:42;;;;;;;4.28;2.40;;;;;;;;;;6210856;23;20012;-87
2022/08/12 11:14:08;;;;;;;15.80;3.20;;;;;;;;;;6213122;23;20011;-88
2022/08/12 11:16:34;;;;;;;5.53;2.55;;;;;;;;;;6237389;23;20005;-88
2022/08/12 11:19:00;;;;;;;3.60;2.38;;;;;;;;;;6212863;23;20004;-88
2022/08/12 11:21:26;;;;;;;3.45;2.40;;;;;;;;;;6212696;23;20039;-88
2022/08/12 11:23:52;;;;;;;6.47;2.53;;;;;;;;;;6212191;23;20099;-88
2022/08/12 11:26:18;;;;;;;9.50;2.67;;;;;;;;;;6210861;23;20109;-87
2022/08/12 11:28:44;;;;;;;6.50;2.40;;;;;;;;;;6211388;22;20094;-87
2022/08/12 11:31:10;;;;;;;9.75;2.75;;;;;;;;;;6211731;23;20364;-88
2022/08/12 11:33:36;;;;;;;5.90;2.60;;;;;;;;;;6238115;23;20000;-88
2022/08/12 11:36:06;;;;;;;2.80;2.60;;;;;;;;;;6238114;23;20082;-88
2022/08/12 11:38:33;;;;;;;3.95;2.45;;;;;;;;;;6238111;23;20404;-88
2022/08/12 11:40:59;;;;;;;6.47;2.67;;;;;;;;;;6238251;23;20424;-88
2022/08/12 11:43:25;;;;;;;7.70;2.50;;;;;;;;;;6212383;23;20061;-91
2022/08/12 11:45:53;;;;;;;5.22;2.50;;;;;;;;;;6240205;23;20015;-87
2022/08/12 11:48:20;;;;;;;3.03;2.63;;;;;;;;;;6237710;23;20004;-88
2022/08/12 11:50:46;;;;;;;2.55;2.33;;;;;;;;;;6214083;23;20011;-88
2022/08/12 11:53:12;;;;;;;7.88;2.85;;;;;;;;;;6209945;23;20301;-88
2022/08/12 11:55:38;;;;;;;7.05;2.58;;;;;;;;;;6211753;23;20444;-88
2022/08/12 11:58:04;;;;;;;2.65;2.38;;;;;;;;;;6210064;23;20008;-87
2022/08/12 12:00:31;;;;;;;5.68;2.42;;;;;;;;;;6212098;23;20464;-88
2022/08/12 12:02:57;;;;;;;2.65;2.20;;;;;;;;;;6236841;23;20065;-88
2022/08/12 12:05:23;;;;;;;5.05;2.35;;;;;;;;;;6210845;23;20012;-87
2022/08/12 12:07:49;;;;;;;5.85;2.53;;;;;;;;;;6209384;23;20004;-87
2022/08/12 12:10:17;;;;;;;9.95;2.58;;;;;;;;;;6210942;23;20008;-88
2022/08/12 12:12:43;;;;;;;8.15;2.20;;;;;;;;;;6235363;23;20000;-88
2022/08/12 12:15:10;;;;;;;5.85;3.03;;;;;;;;;;6206522;23;20004;-88
2022/08/12 12:17:37;;;;;;;3.30;2.70;;;;;;;;;;6210615;23;20008;-87
2022/08/12 12:20:07;;;;;;;4.00;2.70;;;;;;;;;;6208287;23;20007;-88
2022/08/12 12:22:33;;;;;;;3.35;2.35;;;;;;;;;;6211146;23;20475;-88
2022/08/12 12:24:59;;;;;;;7.13;2.67;;;;;;;;;;6211828;23;20008;-88
2022/08/12 12:27:25;;;;;;;10.98;2.40;;;;;;;;;;6210494;23;20012;-87
2022/08/12 12:29:51;;;;;;;4.93;2.45;;;;;;;;;;6209049;22;20091;-87
2022/08/12 12:32:17;;;;;;;5.30;2.30;;;;;;;;;;6208914;23;20043;-88
2022/08/12 12:34:43;;;;;;;2.92;2.58;;;;;;;;;;6237467;23;20004;-88
2022/08/12 12:37:14;;;;;;;8.23;2.75;;;;;;;;;;6209820;23;20041;-88
2022/08/12 12:39:40;;;;;;;4.68;2.42;;;;;;;;;;6210705;23;20015;-88
2022/08/12 12:42:06;;;;;;;5.32;2.30;;;;;;;;;;6208772;23;20004;-89
2022/08/12 12:44:33;;;;;;;3.08;2.63;;;;;;;;;;6238343;23;20004;-88
2022/08/12 12:46:59;;;;;;;3.05;2.15;;;;;;;;;;6208536;23;20004;-89
2022/08/12 12:49:25;;;;;;;4.68;2.38;;;;;;;;;;6234343;23;20035;-89
2022/08/12 12:51:52;;;;;;;6.45;2.30;;;;;;;;;;6208331;23;20487;-88
2022/08/12 12:54:18;;;;;;;3.45;2.17;;;;;;;;;;6236455;23;20027;-88
2022/08/12 12:56:48;;;;;;;4.40;2.30;;;;;;;;;;6207539;23;20008;-88
2022/08/12 12:59:17;;;;;;;2.83;2.28;;;;;;;;;;6211387;23;20019;-88
2022/08/12 13:01:43;;;;;;;3.08;2.20;;;;;;;;;;6207855;23;20008;-88
2022/08/12 13:04:10;;;;;;;9.00;2.58;;;;;;;;;;6208419;23;20004;-87
2022/08/12 13:06:40;;;;;;;4.32;3.92;;;;;;;;;;6209698;23;20031;-88
2022/08/12 13:09:06;;;;;;;6.43;2.50;;;;;;;;;;6208947;23;20480;-88
2022/08/12 13:11:32;;;;;;;4.45;2.00;;;;;;;;;;6207499;23;20512;-89
2022/08/12 13:13:58;;;;;;;2.67;2.17;;;;;;;;;;6210053;23;20463;-89
2022/08/12 13:16:28;;;;;;;5.03;2.33;;;;;;;;;;6207107;23;20019;-89
2022/08/12 13:18:54;;;;;;;6.88;2.33;;;;;;;;;;6208133;23;20012;-89
2022/08/12 13:21:20;;;;;;;4.05;2.20;;;;;;;;;;6209400;23;20711;-89
2022/08/12 13:23:47;;;;;;;10.18;2.20;;;;;;;;;;6236297;23;20531;-88
2022/08/12 13:26:16;;;;;;;5.50;2.05;;;;;;;;;;6207915;23;20430;-89
2022/08/12 13:28:44;;;;;;;3.15;2.10;;;;;;;;;;6206899;22;20087;-88
2022/08/12 13:31:10;;;;;;;5.97;2.63;;;;;;;;;;6206370;23;20087;-89
2022/08/12 13:33:36;;;;;;;4.25;2.05;;;;;;;;;;6208587;23;20437;-88
2022/08/12 13:36:03;;;;;;;5.32;2.08;;;;;;;;;;6208552;23;20008;-89
2022/08/12 13:38:45;;;;;;;3.38;2.47;;;;;;;;;;6209741;23;20008;-88
2022/08/12 13:41:31;;;;;;;4.60;2.20;;;;;;;;;;6208398;23;20058;-88
2022/08/12 13:43:58;;;;;;;3.88;2.20;;;;;;;;;;6237639;23;20431;-88
2022/08/12 13:46:24;;;;;;;2.63;2.30;;;;;;;;;;6209623;23;20051;-88
2022/08/12 13:48:53;;;;;;;2.38;2.15;;;;;;;;;;6237662;23;20437;-88
2022/08/12 13:51:19;;;;;;;2.42;2.10;;;;;;;;;;6208356;23;20433;-88
2022/08/12 13:53:45;;;;;;;4.38;2.13;;;;;;;;;;6210492;23;20035;-88
2022/08/12 13:56:13;;;;;;;5.85;2.65;;;;;;;;;;6208875;23;20011;-88
2022/08/12 13:58:47;;;;;;;2.17;1.98;;;;;;;;;;6208622;23;20035;-88
2022/08/12 14:01:14;;;;;;;3.45;2.20;;;;;;;;;;6209613;23;20347;-87
2022/08/12 14:03:41;;;;;;;3.97;2.08;;;;;;;;;;6210782;23;20008;-86
2022/08/12 14:06:07;;;;;;;7.90;2.83;;;;;;;;;;6210183;23;20340;-86
2022/08/12 14:08:33;;;;;;;4.40;2.55;;;;;;;;;;6209083;23;20000;-87
2022/08/12 14:10:59;;;;;;;7.22;2.13;;;;;;;;;;6210975;23;20000;-87
2022/08/12 14:13:27;;;;;;;5.53;2.08;;;;;;;;;;6209557;23;20400;-87
2022/08/12 14:15:56;;;;;;;4.32;2.20;;;;;;;;;;6236027;23;20007;-87
2022/08/12 14:18:32;;;;;;;4.22;1.70;;;;;;;;;;6208041;23;20043;-87
2022/08/12 14:21:00;;;;;;;2.13;1.80;;;;;;;;;;6238985;23;20397;-86
2022/08/12 14:23:32;;;;;;;3.67;1.90;;;;;;;;;;6211907;23;20008;-86
2022/08/12 14:25:59;;;;;;;3.20;2.00;;;;;;;;;;6212366;23;20486;-87
2022/08/12 14:28:26;;;;;;;4.00;2.00;;;;;;;;;;6238633;23;20011;-87
2022/08/12 14:30:53;;;;;;;4.20;2.45;;;;;;;;;;6212893;22;20419;-86
2022/08/12 14:33:23;;;;;;;7.20;2.35;;;;;;;;;;6210668;23;20038;-87
2022/08/12 14:35:49;;;;;;;3.20;2.30;;;;;;;;;;6213149;23;20056;-87
2022/08/12 14:38:19;;;;;;;7.32;2.00;;;;;;;;;;6211865;23;20420;-87
2022/08/12 14:40:46;;;;;;;5.68;2.08;;;;;;;;;;6211555;23;20448;-87
2022/08/12 14:43:15;;;;;;;9.52;2.10;;;;;;;;;;6211308;23;20034;-87
2022/08/12 14:45:42;;;;;;;2.88;2.13;;;;;;;;;;6211935;23;20032;-87
2022/08/12 14:48:08;;;;;;;9.23;2.35;;;;;;;;;;6212335;23;20450;-88
2022/08/12 14:50:34;;;;;;;2.85;2.20;;;;;;;;;;6212379;23;20008;-88
2022/08/12 14:53:09;;;;;;;4.68;1.90;;;;;;;;;;6212841;23;20004;-87
2022/08/12 14:55:37;;;;;;;3.45;2.30;;;;;;;;;;6212410;23;20026;-88
2022/08/12 14:58:03;;;;;;;6.57;2.47;;;;;;;;;;6210324;23;20075;-88
2022/08/12 15:03:15;;;;;;;6.13;2.10;;;;;;;;;;6237897;23;20537;-87
2022/08/12 15:05:42;;;;;;;3.78;2.33;;;;;;;;;;6239644;23;20391;-87
2022/08/12 15:08:11;;;;;;;5.80;2.03;;;;;;;;;;6210890;23;20015;-88
2022/08/12 15:10:38;;;;;;;7.60;2.22;;;;;;;;;;6212063;23;20015;-87
2022/08/12 15:13:05;;;;;;;8.50;2.70;;;;;;;;;;6210292;23;20446;-87
2022/08/12 15:15:32;;;;;;;5.45;3.25;;;;;;;;;;6210878;23;20018;-88
2022/08/12 15:18:01;;;;;;;8.45;3.38;;;;;;;;;;6211298;23;20010;-88
2022/08/12 15:20:27;;;;;;;5.43;2.70;;;;;;;;;;6211938;23;20038;-87
2022/08/12 15:22:55;;;;;;;5.18;2.22;;;;;;;;;;6212151;23;20430;-87
2022/08/12 15:25:21;;;;;;;6.47;4.78;;;;;;;;;;6211978;23;20032;-87
2022/08/12 15:27:48;;;;;;;6.63;2.75;;;;;;;;;;6237403;23;20004;-87
2022/08/12 15:30:18;;;;;;;12.32;4.93;;;;;;;;;;6207335;22;20016;-87
2022/08/12 15:32:45;;;;;;;6.85;2.45;;;;;;;;;;6205737;23;20091;-87
2022/08/12 15:35:13;;;;;;;11.60;5.65;;;;;;;;;;6208225;23;20305;-87
2022/08/12 15:37:39;;;;;;;7.07;5.18;;;;;;;;;;6207692;23;20000;-87
2022/08/12 15:40:06;;;;;;;9.85;5.50;;;;;;;;;;6206815;23;20028;-87
2022/08/12 15:42:33;;;;;;;7.25;3.13;;;;;;;;;;6204738;23;20019;-87
2022/08/12 15:44:59;;;;;;;4.38;2.35;;;;;;;;;;6206311;23;20788;-88
2022/08/12 15:47:25;;;;;;;7.63;2.50;;;;;;;;;;6205878;23;20020;-87
2022/08/12 15:49:52;;;;;;;7.88;2.78;;;;;;;;;;6204635;23;20519;-87
2022/08/12 15:52:22;;;;;;;12.27;3.60;;;;;;;;;;6205581;23;20043;-87
2022/08/12 15:54:50;;;;;;;3.03;2.58;;;;;;;;;;6205869;23;20091;-88
2022/08/12 15:57:18;;;;;;;12.55;2.65;;;;;;;;;;6206016;23;20083;-87
2022/08/12 15:59:45;;;;;;;4.93;2.33;;;;;;;;;;6205404;23;20016;-87
2022/08/12 16:02:13;;;;;;;5.97;2.60;;;;;;;;;;6205966;23;20019;-87
2022/08/12 16:04:40;;;;;;;12.10;2.58;;;;;;;;;;6205618;23;20015;-87
2022/08/12 16:07:12;;;;;;;9.25;2.55;;;;;;;;;;6205292;23;20147;-87
2022/08/12 16:09:38;;;;;;;8.65;2.25;;;;;;;;;;6207452;23;20015;-87
2022/08/12 16:12:04;;;;;;;10.05;2.97;;;;;;;;;;6204980;23;20005;-87
2022/08/12 16:14:31;;;;;;;5.65;2.50;;;;;;;;;;6205680;23;20437;-87
2022/08/12 16:16:58;;;;;;;4.82;2.90;;;;;;;;;;6201804;23;20009;-88
2022/08/12 16:19:24;;;;;;;6.95;3.03;;;;;;;;;;6208613;23;20373;-87
2022/08/12 16:21:50;;;;;;;10.02;3.38;;;;;;;;;;6205338;23;20013;-88
2022/08/12 16:24:19;;;;;;;4.65;2.20;;;;;;;;;;6205275;23;20094;-87
2022/08/12 16:26:45;;;;;;;8.30;2.60;;;;;;;;;;6205505;23;20015;-88